createdAt,value
2022-08-19T00:02:36.891Z,2.50
2022-08-19T00:05:38.635Z,2.20
2022-08-19T00:08:40.683Z,2.05
2022-08-19T00:11:46.942Z,2.20
2022-08-19T00:14:48.757Z,2.80
2022-08-19T00:17:50.628Z,1.98
2022-08-19T00:20:52.706Z,1.98
2022-08-19T00:23:59.285Z,2.40
2022-08-19T00:27:26.312Z,2.20
2022-08-19T00:30:24.391Z,2.10
2022-08-19T00:33:26.851Z,2.08
2022-08-19T00:36:33.993Z,1.90
2022-08-19T00:39:35.825Z,2.15
2022-08-19T00:42:38.569Z,1.70
2022-08-19T00:45:44.676Z,2.00
2022-08-19T00:48:46.394Z,1.83
2022-08-19T00:51:52.694Z,2.00
2022-08-19T00:54:54.568Z,2.08
2022-08-19T00:58:01.500Z,2.13
2022-08-19T01:01:05.170Z,2.00
2022-08-19T01:04:07.235Z,1.73
2022-08-19T01:07:09.227Z,2.10
2022-08-19T01:10:20.083Z,1.95
2022-08-19T01:13:26.732Z,2.23
2022-08-19T01:16:30.875Z,2.13
2022-08-19T01:19:43.656Z,2.10
2022-08-19T01:22:50.031Z,2.30
2022-08-19T01:25:54.716Z,1.60
2022-08-19T01:28:59.647Z,2.10
2022-08-19T01:32:03.134Z,1.92
2022-08-19T01:35:05.877Z,1.95
2022-08-19T01:38:11.048Z,1.90
2022-08-19T01:41:14.229Z,1.95
2022-08-19T01:44:19.327Z,1.98
2022-08-19T01:47:21.155Z,2.00
2022-08-19T01:50:23.244Z,1.70
2022-08-19T01:53:26.716Z,1.83
2022-08-19T01:56:35.746Z,1.92
2022-08-19T01:59:37.764Z,1.98
2022-08-19T02:02:40.720Z,1.80
2022-08-19T02:05:46.721Z,1.80
2022-08-19T02:08:48.846Z,2.65
2022-08-19T02:11:52.975Z,2.00
2022-08-19T02:14:54.694Z,1.95
2022-08-19T02:17:56.430Z,2.00
2022-08-19T02:20:58.146Z,2.17
2022-08-19T02:24:00.112Z,2.50
2022-08-19T02:27:01.906Z,2.08
2022-08-19T02:30:06.318Z,2.10
2022-08-19T02:33:08.099Z,2.95
2022-08-19T02:36:11.097Z,1.85
2022-08-19T02:39:13.118Z,2.15
2022-08-19T02:42:14.772Z,2.00
2022-08-19T02:45:16.650Z,2.20
2022-08-19T02:48:23.386Z,2.60
2022-08-19T02:51:28.573Z,2.03
2022-08-19T02:54:30.308Z,2.25
2022-08-19T02:57:32.827Z,2.30
2022-08-19T03:00:34.620Z,2.33
2022-08-19T03:03:43.804Z,2.53
2022-08-19T03:06:47.688Z,2.28
2022-08-19T03:09:49.415Z,2.20
2022-08-19T03:12:51.245Z,2.17
2022-08-19T03:15:53.126Z,2.00
2022-08-19T03:18:57.340Z,1.98
2022-08-19T03:21:59.592Z,2.67
2022-08-19T03:25:01.312Z,1.88
2022-08-19T03:28:03.241Z,1.58
2022-08-19T03:31:42.110Z,2.00
2022-08-19T03:34:35.566Z,2.30
2022-08-19T03:37:37.272Z,2.08
2022-08-19T03:40:43.944Z,2.20
2022-08-19T03:43:47.691Z,1.83
2022-08-19T03:46:56.134Z,1.70
2022-08-19T03:49:57.964Z,1.98
2022-08-19T03:53:00.171Z,1.73
2022-08-19T03:56:02.306Z,2.15
2022-08-19T03:59:06.416Z,2.22
2022-08-19T04:02:11.844Z,2.10
2022-08-19T04:05:15.052Z,2.22
2022-08-19T04:08:19.950Z,2.03
2022-08-19T04:11:24.927Z,2.50
2022-08-19T04:14:45.846Z,2.40
2022-08-19T04:17:47.641Z,2.03
2022-08-19T04:20:49.737Z,2.35
2022-08-19T04:23:52.170Z,1.90
2022-08-19T04:26:53.961Z,1.77
2022-08-19T04:29:56.125Z,1.98
2022-08-19T04:32:57.857Z,1.73
2022-08-19T04:35:59.740Z,1.60
2022-08-19T04:39:05.926Z,1.92
2022-08-19T04:42:30.863Z,2.05
2022-08-19T04:45:39.623Z,2.08
2022-08-19T04:48:49.432Z,3.53
2022-08-19T04:51:55.115Z,2.65
2022-08-19T04:54:56.850Z,1.92
2022-08-19T04:57:58.530Z,1.85
2022-08-19T05:01:02.004Z,2.03
2022-08-19T05:04:07.144Z,2.20
2022-08-19T05:07:09.465Z,1.97
2022-08-19T05:10:11.281Z,2.17
2022-08-19T05:13:13.023Z,2.08
2022-08-19T05:16:16.949Z,2.20
2022-08-19T05:19:37.158Z,1.70
2022-08-19T05:22:38.980Z,1.75
2022-08-19T05:25:41.376Z,2.42
2022-08-19T05:28:43.412Z,1.60
2022-08-19T05:31:46.001Z,1.85
2022-08-19T05:34:47.751Z,1.98
2022-08-19T05:37:49.499Z,1.73
2022-08-19T05:40:58.695Z,1.50
2022-08-19T05:44:04.119Z,1.73
2022-08-19T05:47:09.365Z,1.48
2022-08-19T05:50:11.509Z,2.35
2022-08-19T05:53:15.546Z,1.90
2022-08-19T05:56:18.850Z,2.30
2022-08-19T05:59:22.415Z,1.90
2022-08-19T06:02:31.710Z,1.98
2022-08-19T06:05:33.742Z,2.03
2022-08-19T06:08:51.671Z,1.98
2022-08-19T06:11:56.318Z,1.83
2022-08-19T06:15:01.002Z,2.08
2022-08-19T06:18:04.518Z,2.30
2022-08-19T06:21:06.301Z,1.88
2022-08-19T06:24:10.812Z,2.17
2022-08-19T06:27:12.614Z,3.38
2022-08-19T06:30:15.118Z,2.17
2022-08-19T06:33:16.957Z,2.40
2022-08-19T06:36:32.210Z,2.50
2022-08-19T06:39:39.621Z,2.80
2022-08-19T06:42:51.786Z,2.95
2022-08-19T06:45:56.958Z,2.83
2022-08-19T06:49:01.455Z,2.53
2022-08-19T06:52:04.385Z,2.55
2022-08-19T06:55:07.153Z,2.80
2022-08-19T06:58:10.208Z,2.63
2022-08-19T07:01:11.975Z,2.78
2022-08-19T07:04:16.611Z,2.65
2022-08-19T07:07:21.123Z,2.75
2022-08-19T07:10:23.362Z,2.80
2022-08-19T07:13:27.787Z,2.67
2022-08-19T07:16:29.766Z,2.42
2022-08-19T07:19:32.395Z,2.53
2022-08-19T07:22:35.794Z,3.00
2022-08-19T07:25:38.848Z,2.83
2022-08-19T07:28:46.134Z,2.90
2022-08-19T07:31:59.997Z,2.40
2022-08-19T07:35:04.303Z,2.80
2022-08-19T07:38:06.090Z,3.00
2022-08-19T07:41:10.215Z,3.17
2022-08-19T07:44:13.471Z,3.00
2022-08-19T07:47:50.286Z,3.38
2022-08-19T07:50:38.703Z,3.17
2022-08-19T07:53:40.735Z,2.88
2022-08-19T07:56:42.638Z,3.35
2022-08-19T07:59:44.430Z,3.10
2022-08-19T08:02:46.171Z,3.20
2022-08-19T08:06:24.464Z,2.50
2022-08-19T08:09:39.386Z,3.25
2022-08-19T08:12:42.423Z,2.85
2022-08-19T08:15:45.591Z,2.78
2022-08-19T08:18:50.695Z,2.92
2022-08-19T08:21:58.345Z,3.33
2022-08-19T08:25:05.315Z,2.70
2022-08-19T08:28:11.439Z,3.22
2022-08-19T08:31:20.207Z,2.75
2022-08-19T08:34:22.436Z,2.75
2022-08-19T08:37:24.276Z,2.80
2022-08-19T08:40:55.708Z,3.00
2022-08-19T08:43:59.425Z,2.72
2022-08-19T08:47:08.880Z,3.00
2022-08-19T08:50:20.340Z,2.70
2022-08-19T08:53:29.712Z,3.00
2022-08-19T08:56:34.140Z,3.08
2022-08-19T08:59:40.050Z,2.83
2022-08-19T09:02:41.775Z,3.63
2022-08-19T09:06:11.999Z,3.42
2022-08-19T09:09:24.622Z,3.08
2022-08-19T09:12:56.135Z,3.00
2022-08-19T09:16:07.566Z,3.03
2022-08-19T09:19:11.613Z,2.70
2022-08-19T09:22:13.799Z,3.05
2022-08-19T09:25:29.545Z,2.70
2022-08-19T09:28:32.461Z,2.60
2022-08-19T09:31:34.233Z,2.88
2022-08-19T09:34:37.889Z,3.22
2022-08-19T09:37:40.454Z,2.70
2022-08-19T09:40:42.276Z,3.30
2022-08-19T09:43:47.936Z,2.70
2022-08-19T09:46:50.408Z,3.42
2022-08-19T09:49:52.227Z,2.45
2022-08-19T09:52:57.189Z,2.40
2022-08-19T09:55:59.514Z,2.30
2022-08-19T09:59:03.333Z,2.53
2022-08-19T10:02:11.006Z,2.90
2022-08-19T10:05:38.857Z,3.05
2022-08-19T10:08:50.185Z,2.65
2022-08-19T10:11:54.809Z,2.85
2022-08-19T10:14:57.227Z,4.05
2022-08-19T10:18:00.277Z,2.60
2022-08-19T10:21:23.934Z,2.70
2022-08-19T10:24:28.932Z,3.88
2022-08-19T10:27:32.498Z,3.70
2022-08-19T10:30:36.270Z,3.40
2022-08-19T10:33:53.624Z,2.97
2022-08-19T10:37:01.285Z,3.03
2022-08-19T10:40:08.540Z,2.70
2022-08-19T10:43:10.698Z,3.20
2022-08-19T10:46:16.670Z,3.38
2022-08-19T10:49:20.349Z,3.28
2022-08-19T10:52:39.050Z,3.17
2022-08-19T10:55:59.396Z,2.92
2022-08-19T10:59:04.037Z,2.90
2022-08-19T11:02:12.963Z,3.10
2022-08-19T11:05:16.308Z,3.53
2022-08-19T11:08:23.206Z,3.03
2022-08-19T11:11:25.923Z,2.90
2022-08-19T11:14:28.276Z,2.85
2022-08-19T11:17:33.997Z,2.78
2022-08-19T11:20:35.706Z,2.83
2022-08-19T11:23:37.967Z,2.58
2022-08-19T11:26:42.332Z,2.75
2022-08-19T11:29:44.077Z,2.73
2022-08-19T11:32:49.374Z,2.50
2022-08-19T11:35:51.523Z,2.92
2022-08-19T11:38:54.061Z,3.08
2022-08-19T11:41:56.836Z,2.95
2022-08-19T11:44:58.585Z,2.65
2022-08-19T11:48:00.411Z,2.80
2022-08-19T11:51:10.383Z,2.80
2022-08-19T11:54:14.319Z,2.97
2022-08-19T11:57:17.926Z,2.80
2022-08-19T12:00:19.960Z,2.90
2022-08-19T12:03:22.178Z,2.60
2022-08-19T12:06:29.702Z,3.95
2022-08-19T12:09:32.824Z,2.85
2022-08-19T12:12:34.652Z,2.72
2022-08-19T12:15:38.634Z,2.40
2022-08-19T12:18:44.357Z,3.10
2022-08-19T12:21:46.177Z,3.75
2022-08-19T12:24:49.023Z,2.72
2022-08-19T12:27:57.243Z,3.00
2022-08-19T12:30:59.751Z,3.13
2022-08-19T12:34:02.470Z,3.22
2022-08-19T12:37:06.428Z,3.30
2022-08-19T12:40:08.880Z,2.85
2022-08-19T12:43:12.594Z,3.25
2022-08-19T12:46:15.197Z,3.03
2022-08-19T12:49:52.256Z,2.70
2022-08-19T12:52:43.394Z,2.47
2022-08-19T12:55:45.272Z,2.47
2022-08-19T12:58:48.678Z,2.97
2022-08-19T13:01:50.836Z,2.75
2022-08-19T13:04:52.564Z,3.13
2022-08-19T13:07:58.301Z,2.60
2022-08-19T13:11:12.814Z,2.70
2022-08-19T13:14:14.655Z,2.10
2022-08-19T13:17:16.697Z,3.25
2022-08-19T13:20:20.539Z,2.10
2022-08-19T13:23:22.678Z,2.58
2022-08-19T13:26:24.759Z,3.22
2022-08-19T13:29:45.032Z,2.42
2022-08-19T13:33:05.355Z,2.40
2022-08-19T13:36:08.911Z,2.10
2022-08-19T13:39:11.217Z,2.90
2022-08-19T13:42:14.947Z,1.67
2022-08-19T13:45:20.622Z,2.03
2022-08-19T13:48:23.265Z,2.00
2022-08-19T13:51:25.175Z,1.70
2022-08-19T13:54:28.009Z,2.28
2022-08-19T13:57:29.771Z,2.45
2022-08-19T14:00:35.731Z,2.10
2022-08-19T14:03:38.923Z,2.00
2022-08-19T14:06:40.673Z,1.80
2022-08-19T14:09:42.513Z,2.20
2022-08-19T14:12:45.342Z,2.20
2022-08-19T14:15:48.425Z,1.88
2022-08-19T14:18:50.311Z,2.28
2022-08-19T14:21:52.079Z,1.90
2022-08-19T14:24:53.821Z,2.08
2022-08-19T14:27:56.750Z,1.83
2022-08-19T14:30:58.655Z,1.90
2022-08-19T14:34:00.599Z,1.75
2022-08-19T14:37:02.473Z,2.08
2022-08-19T14:40:05.439Z,1.85
2022-08-19T14:43:07.271Z,1.50
2022-08-19T14:46:11.223Z,1.52
2022-08-19T14:49:13.318Z,1.80
2022-08-19T14:52:15.266Z,2.00
2022-08-19T14:55:19.026Z,1.73
2022-08-19T14:58:29.805Z,1.50
2022-08-19T15:01:32.231Z,1.63
2022-08-19T15:04:34.257Z,2.90
2022-08-19T15:07:36.105Z,1.48
2022-08-19T15:10:40.045Z,1.80
2022-08-19T15:13:42.726Z,1.80
2022-08-19T15:16:44.471Z,2.47
2022-08-19T15:19:46.749Z,1.55
2022-08-19T15:22:48.571Z,1.50
2022-08-19T15:25:56.525Z,1.20
2022-08-19T15:29:00.313Z,1.42
2022-08-19T15:32:02.048Z,1.92
2022-08-19T15:35:06.065Z,2.28
2022-08-19T15:38:08.738Z,1.73
2022-08-19T15:41:25.566Z,2.38
2022-08-19T15:44:27.563Z,1.85
2022-08-19T15:47:34.421Z,1.80
2022-08-19T15:50:37.753Z,1.88
2022-08-19T15:53:40.881Z,1.60
2022-08-19T15:57:01.190Z,1.50
2022-08-19T16:00:22.400Z,1.50
2022-08-19T16:03:47.564Z,1.77
2022-08-19T16:06:52.909Z,1.35
2022-08-19T16:12:58.148Z,1.70
2022-08-19T16:16:00.000Z,1.63
2022-08-19T16:19:10.314Z,1.80
2022-08-19T16:22:14.026Z,2.35
2022-08-19T16:25:16.100Z,1.92
2022-08-19T16:28:17.831Z,1.80
2022-08-19T16:31:19.545Z,2.22
2022-08-19T16:34:21.974Z,1.65
2022-08-19T16:37:23.796Z,1.95
2022-08-19T16:40:25.780Z,2.30
2022-08-19T16:43:29.303Z,1.42
2022-08-19T16:46:31.132Z,1.88
2022-08-19T16:49:54.540Z,2.13
2022-08-19T16:52:58.751Z,1.75
2022-08-19T16:56:01.452Z,1.75
2022-08-19T16:59:03.685Z,1.92
2022-08-19T17:02:05.703Z,1.52
2022-08-19T17:05:10.780Z,2.35
2022-08-19T17:08:13.888Z,1.80
2022-08-19T17:11:18.514Z,2.33
2022-08-19T17:14:21.969Z,1.75
2022-08-19T17:17:27.041Z,1.95
2022-08-19T17:20:31.594Z,1.90
2022-08-19T17:23:42.646Z,1.67
2022-08-19T17:26:45.947Z,2.03
2022-08-19T17:29:48.157Z,1.77
2022-08-19T17:32:50.427Z,1.88
2022-08-19T17:35:52.187Z,2.17
2022-08-19T17:38:58.046Z,1.80
2022-08-19T17:42:02.577Z,2.17
2022-08-19T17:45:06.174Z,1.70
2022-08-19T17:48:10.514Z,2.10
2022-08-19T17:51:35.707Z,2.20
2022-08-19T17:54:37.454Z,1.48
2022-08-19T17:57:41.216Z,2.33
2022-08-19T18:00:53.695Z,1.92
2022-08-19T18:03:55.900Z,2.13
2022-08-19T18:06:58.412Z,2.17
2022-08-19T18:10:01.811Z,2.33
2022-08-19T18:13:17.630Z,1.63
2022-08-19T18:16:22.073Z,1.50
2022-08-19T18:19:25.546Z,1.80
2022-08-19T18:22:36.989Z,1.88
2022-08-19T18:25:41.993Z,2.20
2022-08-19T18:28:49.712Z,1.77
2022-08-19T18:31:51.813Z,1.70
2022-08-19T18:34:54.885Z,2.28
2022-08-19T18:37:59.130Z,2.15
2022-08-19T18:41:20.108Z,1.98
2022-08-19T18:44:40.523Z,2.38
2022-08-19T18:48:00.603Z,2.00
2022-08-19T18:51:02.508Z,1.90
2022-08-19T18:54:04.509Z,1.90
2022-08-19T18:57:07.272Z,2.42
2022-08-19T19:00:10.454Z,2.20
2022-08-19T19:03:12.188Z,2.20
2022-08-19T19:06:18.993Z,1.88
2022-08-19T19:09:24.650Z,2.00
2022-08-19T19:15:32.876Z,2.30
2022-08-19T19:18:35.045Z,1.63
2022-08-19T19:21:36.772Z,1.90
2022-08-19T19:24:40.419Z,1.95
2022-08-19T19:27:42.125Z,2.97
2022-08-19T19:30:43.905Z,2.45
2022-08-19T19:33:46.478Z,2.25
2022-08-19T19:36:49.985Z,2.15
2022-08-19T19:39:52.484Z,2.17
2022-08-19T19:42:55.664Z,2.38
2022-08-19T19:45:57.660Z,2.20
2022-08-19T19:49:00.382Z,2.20
2022-08-19T19:52:02.265Z,1.92
2022-08-19T19:55:04.398Z,1.88
2022-08-19T19:58:07.018Z,2.17
2022-08-19T20:01:12.613Z,2.03
2022-08-19T20:04:19.289Z,3.55
2022-08-19T20:07:40.954Z,2.17
2022-08-19T20:10:43.772Z,2.30
2022-08-19T20:13:45.541Z,2.97
2022-08-19T20:16:49.180Z,2.47
2022-08-19T20:19:51.014Z,1.98
2022-08-19T20:22:53.854Z,2.22
2022-08-19T20:25:55.831Z,2.30
2022-08-19T20:29:13.254Z,2.70
2022-08-19T20:32:19.360Z,1.70
2022-08-19T20:35:21.720Z,2.17
2022-08-19T20:38:23.429Z,2.30
2022-08-19T20:41:25.308Z,2.20
2022-08-19T20:44:27.075Z,2.20
2022-08-19T20:47:31.262Z,2.33
2022-08-19T20:50:35.074Z,2.00
2022-08-19T20:53:38.570Z,1.83
2022-08-19T20:56:40.369Z,2.55
2022-08-19T20:59:42.097Z,2.00
2022-08-19T21:02:43.974Z,2.55
2022-08-19T21:05:46.473Z,3.10
2022-08-19T21:08:48.894Z,2.00
2022-08-19T21:11:51.060Z,2.10
2022-08-19T21:14:52.923Z,2.78
2022-08-19T21:17:54.803Z,2.90
2022-08-19T21:20:56.701Z,2.10
2022-08-19T21:23:58.522Z,3.03
2022-08-19T21:27:00.566Z,2.38
2022-08-19T21:30:03.903Z,2.65
2022-08-19T21:33:06.394Z,2.28
2022-08-19T21:36:09.511Z,2.50
2022-08-19T21:39:11.386Z,2.47
2022-08-19T21:42:14.360Z,2.20
2022-08-19T21:45:19.709Z,1.98
2022-08-19T21:48:21.433Z,2.25
2022-08-19T21:51:23.225Z,2.40
2022-08-19T21:54:25.005Z,2.10
2022-08-19T21:57:26.730Z,2.38
2022-08-19T22:00:32.209Z,2.08
2022-08-19T22:03:36.406Z,2.75
2022-08-19T22:06:38.085Z,2.35
2022-08-19T22:09:44.571Z,2.25
2022-08-19T22:12:51.271Z,2.47
2022-08-19T22:15:55.167Z,2.30
2022-08-19T22:18:57.397Z,2.53
2022-08-19T22:21:59.140Z,2.97
2022-08-19T22:25:08.867Z,2.58
2022-08-19T22:28:12.857Z,2.38
2022-08-19T22:31:16.103Z,2.50
2022-08-19T22:34:18.466Z,2.20
2022-08-19T22:37:20.353Z,2.40
2022-08-19T22:40:22.086Z,2.53
2022-08-19T22:43:28.536Z,2.40
2022-08-19T22:46:33.637Z,2.70
2022-08-19T22:49:35.544Z,2.80
2022-08-19T22:52:37.313Z,2.28
2022-08-19T22:55:39.333Z,2.22
2022-08-19T22:58:42.245Z,2.25
2022-08-19T23:01:44.222Z,2.30
2022-08-19T23:04:46.005Z,2.75
2022-08-19T23:07:52.454Z,2.33
2022-08-19T23:10:54.344Z,2.72
2022-08-19T23:13:56.048Z,2.47
2022-08-19T23:16:59.233Z,2.20
2022-08-19T23:20:01.417Z,2.55
2022-08-19T23:23:06.268Z,1.90
2022-08-19T23:26:10.783Z,2.20
2022-08-19T23:29:32.203Z,1.75
2022-08-19T23:32:35.251Z,1.98
2022-08-19T23:35:38.374Z,2.20
2022-08-19T23:38:42.994Z,1.88
2022-08-19T23:41:44.721Z,2.05
2022-08-19T23:44:51.277Z,1.83
2022-08-19T23:47:54.542Z,2.00
2022-08-19T23:50:57.203Z,1.98
2022-08-19T23:53:58.962Z,1.83
2022-08-19T23:57:00.677Z,1.83
